createdAt,value
2022-10-28T00:04:58.919Z,100.00
2022-10-28T00:10:05.558Z,100.00
2022-10-28T00:15:11.946Z,100.00
2022-10-28T00:20:15.835Z,100.00
2022-10-28T00:25:24.655Z,100.00
2022-10-28T00:35:33.982Z,100.00
2022-10-28T00:40:39.540Z,100.00
2022-10-28T00:45:44.327Z,100.00
2022-10-28T00:50:55.120Z,100.00
2022-10-28T00:55:57.460Z,100.00
2022-10-28T01:00:59.404Z,100.00
2022-10-28T01:06:13.137Z,100.00
2022-10-28T01:11:59.845Z,100.00
2022-10-28T01:17:08.661Z,100.00
2022-10-28T01:22:40.811Z,100.00
2022-10-28T01:27:54.944Z,100.00
2022-10-28T01:33:21.169Z,100.00
2022-10-28T01:38:28.837Z,100.00
2022-10-28T01:43:36.829Z,100.00
2022-10-28T01:48:56.754Z,100.00
2022-10-28T01:54:00.141Z,100.00
2022-10-28T01:59:14.948Z,100.00
2022-10-28T02:04:21.448Z,100.00
2022-10-28T02:09:36.680Z,100.00
2022-10-28T02:15:10.884Z,100.00
2022-10-28T02:20:38.638Z,100.00
2022-10-28T02:25:49.414Z,100.00
2022-10-28T02:30:53.888Z,100.00
2022-10-28T02:35:59.735Z,100.00
2022-10-28T02:41:06.991Z,100.00
2022-10-28T02:46:13.813Z,100.00
2022-10-28T02:51:16.213Z,100.00
2022-10-28T02:56:22.527Z,100.00
2022-10-28T03:01:29.293Z,100.00
2022-10-28T03:06:31.515Z,100.00
2022-10-28T03:11:34.119Z,100.00
2022-10-28T03:16:35.969Z,100.00
2022-10-28T03:21:40.066Z,100.00
2022-10-28T03:26:42.111Z,100.00
2022-10-28T03:31:47.892Z,100.00
2022-10-28T03:36:52.025Z,100.00
2022-10-28T03:41:58.489Z,100.00
2022-10-28T03:47:00.300Z,100.00
2022-10-28T03:52:04.109Z,100.00
2022-10-28T03:57:05.867Z,100.00
2022-10-28T04:02:10.125Z,100.00
2022-10-28T04:07:15.020Z,100.00
2022-10-28T04:12:19.678Z,100.00
2022-10-28T04:17:23.837Z,100.00
2022-10-28T04:22:28.005Z,100.00
2022-10-28T04:27:31.755Z,100.00
2022-10-28T04:32:33.602Z,100.00
2022-10-28T04:37:38.646Z,100.00
2022-10-28T04:42:44.961Z,100.00
2022-10-28T04:47:46.727Z,100.00
2022-10-28T04:52:50.951Z,100.00
2022-10-28T04:57:59.440Z,100.00
2022-10-28T05:03:05.195Z,100.00
2022-10-28T05:08:10.855Z,100.00
2022-10-28T05:13:14.957Z,100.00
2022-10-28T05:18:16.965Z,100.00
2022-10-28T05:23:27.149Z,100.00
2022-10-28T05:28:39.839Z,100.00
2022-10-28T05:33:44.087Z,100.00
2022-10-28T05:38:49.737Z,100.00
2022-10-28T05:43:54.347Z,100.00
2022-10-28T05:48:56.431Z,100.00
2022-10-28T05:54:06.515Z,100.00
2022-10-28T05:59:12.789Z,100.00
2022-10-28T06:04:19.465Z,100.00
2022-10-28T06:09:23.841Z,100.00
2022-10-28T06:14:28.748Z,100.00
2022-10-28T06:19:30.580Z,100.00
2022-10-28T06:24:34.872Z,100.00
2022-10-28T06:29:36.665Z,100.00
2022-10-28T06:34:38.465Z,100.00
2022-10-28T06:39:44.696Z,100.00
2022-10-28T06:44:46.477Z,100.00
2022-10-28T06:49:51.331Z,100.00
2022-10-28T06:54:55.209Z,100.00
2022-10-28T07:00:01.633Z,100.00
2022-10-28T07:05:06.336Z,100.00
2022-10-28T07:10:08.415Z,100.00
2022-10-28T07:15:15.383Z,100.00
2022-10-28T07:20:17.316Z,100.00
2022-10-28T07:25:20.180Z,100.00
2022-10-28T07:30:29.264Z,100.00
2022-10-28T07:35:31.654Z,100.00
2022-10-28T07:40:33.544Z,100.00
2022-10-28T07:45:40.050Z,100.00
2022-10-28T07:50:41.938Z,100.00
2022-10-28T07:55:48.174Z,100.00
2022-10-28T08:00:52.177Z,100.00
2022-10-28T08:06:05.601Z,100.00
2022-10-28T08:11:19.106Z,100.00
2022-10-28T08:16:24.337Z,100.00
2022-10-28T08:21:29.087Z,100.00
2022-10-28T08:26:33.349Z,100.00
2022-10-28T08:31:37.332Z,100.00
2022-10-28T08:36:40.219Z,100.00
2022-10-28T08:41:49.873Z,100.00
2022-10-28T08:47:36.296Z,100.00
2022-10-28T08:52:53.832Z,100.00
2022-10-28T08:58:01.612Z,100.00
2022-10-28T09:03:12.761Z,100.00
2022-10-28T09:08:28.365Z,100.00
2022-10-28T09:13:42.043Z,100.00
2022-10-28T09:18:52.406Z,100.00
2022-10-28T09:24:19.162Z,100.00
2022-10-28T09:29:32.980Z,100.00
2022-10-28T09:34:45.147Z,100.00
2022-10-28T09:40:02.680Z,100.00
2022-10-28T09:45:13.097Z,100.00
2022-10-28T09:50:27.494Z,100.00
2022-10-28T09:55:29.668Z,100.00
2022-10-28T10:00:32.128Z,100.00
2022-10-28T10:05:39.302Z,98.43
2022-10-28T10:10:59.591Z,97.32
2022-10-28T10:16:08.011Z,95.54
2022-10-28T10:21:16.337Z,95.54
2022-10-28T10:26:20.215Z,95.01
2022-10-28T10:31:27.387Z,94.04
2022-10-28T10:36:31.705Z,93.28
2022-10-28T10:41:37.146Z,93.40
2022-10-28T10:46:38.902Z,93.15
2022-10-28T10:51:53.093Z,91.02
2022-10-28T10:56:55.153Z,90.58
2022-10-28T11:01:59.785Z,89.71
2022-10-28T11:07:18.337Z,89.78
2022-10-28T11:12:35.647Z,89.36
2022-10-28T11:17:38.549Z,89.32
2022-10-28T11:23:01.730Z,88.36
2022-10-28T11:28:25.742Z,87.93
2022-10-28T11:33:47.813Z,85.85
2022-10-28T11:38:58.804Z,83.33
2022-10-28T11:44:08.779Z,82.06
2022-10-28T11:49:42.376Z,81.81
2022-10-28T11:55:08.550Z,82.24
2022-10-28T12:00:26.145Z,80.07
2022-10-28T12:05:37.442Z,80.74
2022-10-28T12:10:50.444Z,80.87
2022-10-28T12:16:07.379Z,80.83
2022-10-28T12:21:32.650Z,82.09
2022-10-28T12:26:59.433Z,82.50
2022-10-28T12:32:05.867Z,83.56
2022-10-28T12:37:16.241Z,83.53
2022-10-28T12:42:23.372Z,84.46
2022-10-28T12:47:49.958Z,83.50
2022-10-28T12:52:55.777Z,82.18
2022-10-28T12:58:16.178Z,80.95
2022-10-28T13:03:23.593Z,79.16
2022-10-28T13:09:03.925Z,79.62
2022-10-28T13:14:35.779Z,78.75
2022-10-28T13:19:45.766Z,78.52
2022-10-28T13:25:02.476Z,77.43
2022-10-28T13:30:16.749Z,75.04
2022-10-28T13:35:24.001Z,74.31
2022-10-28T13:40:33.956Z,75.80
2022-10-28T13:45:53.803Z,76.86
2022-10-28T13:51:32.219Z,78.07
2022-10-28T13:56:45.923Z,79.12
2022-10-28T14:01:56.731Z,79.17
2022-10-28T14:07:12.801Z,79.83
2022-10-28T14:12:23.008Z,80.66
2022-10-28T14:17:30.964Z,81.85
2022-10-28T14:22:35.669Z,82.60
2022-10-28T14:27:47.081Z,83.39
2022-10-28T14:32:54.229Z,84.46
2022-10-28T14:38:32.936Z,84.79
2022-10-28T14:43:55.862Z,85.48
2022-10-28T14:48:58.924Z,85.57
2022-10-28T14:54:03.941Z,85.93
2022-10-28T14:59:53.412Z,86.51
2022-10-28T15:05:03.270Z,87.40
2022-10-28T15:10:15.871Z,88.00
2022-10-28T15:15:22.623Z,88.13
2022-10-28T15:20:26.912Z,88.98
2022-10-28T15:25:29.930Z,90.09
2022-10-28T15:30:39.898Z,91.60
2022-10-28T15:35:48.942Z,92.06
2022-10-28T15:40:56.294Z,91.70
2022-10-28T15:46:15.354Z,92.94
2022-10-28T15:51:20.198Z,93.51
2022-10-28T15:56:25.458Z,93.22
2022-10-28T16:01:45.853Z,93.71
2022-10-28T16:06:57.647Z,94.19
2022-10-28T16:12:05.770Z,94.52
2022-10-28T16:17:23.671Z,94.53
2022-10-28T16:22:28.059Z,95.69
2022-10-28T16:27:34.189Z,95.60
2022-10-28T16:32:39.825Z,95.58
2022-10-28T16:37:55.513Z,95.52
2022-10-28T16:43:01.830Z,95.30
2022-10-28T16:48:11.087Z,95.17
2022-10-28T16:53:13.103Z,95.33
2022-10-28T16:58:20.668Z,95.50
2022-10-28T17:03:26.892Z,95.77
2022-10-28T17:08:56.532Z,96.42
2022-10-28T17:13:52.125Z,96.61
2022-10-28T17:18:54.469Z,96.48
2022-10-28T17:23:56.654Z,96.49
2022-10-28T17:29:03.315Z,96.86
2022-10-28T17:34:08.253Z,96.52
2022-10-28T17:39:15.741Z,97.01
2022-10-28T17:44:19.762Z,97.73
2022-10-28T17:49:21.727Z,97.87
2022-10-28T17:59:26.874Z,97.41
2022-10-28T18:04:30.691Z,98.65
2022-10-28T18:09:33.051Z,98.96
2022-10-28T18:14:34.958Z,98.63
2022-10-28T18:19:37.099Z,98.16
2022-10-28T18:24:38.943Z,98.67
2022-10-28T18:29:41.739Z,99.55
2022-10-28T18:34:45.030Z,99.80
2022-10-28T18:39:55.102Z,99.26
2022-10-28T18:45:00.188Z,99.97
2022-10-28T18:50:03.060Z,100.00
2022-10-28T18:55:08.240Z,100.00
2022-10-28T19:00:18.364Z,100.00
2022-10-28T19:05:26.983Z,100.00
2022-10-28T19:10:29.093Z,100.00
2022-10-28T19:15:31.288Z,100.00
2022-10-28T19:20:37.233Z,100.00
2022-10-28T19:25:39.575Z,100.00
2022-10-28T19:30:41.756Z,100.00
2022-10-28T19:35:50.175Z,100.00
2022-10-28T19:40:54.678Z,100.00
2022-10-28T19:46:03.873Z,100.00
2022-10-28T19:51:11.949Z,100.00
2022-10-28T20:01:18.553Z,100.00
2022-10-28T20:06:37.063Z,100.00
2022-10-28T20:11:41.727Z,100.00
2022-10-28T20:16:50.971Z,100.00
2022-10-28T20:21:53.134Z,100.00
2022-10-28T20:26:54.959Z,100.00
2022-10-28T20:31:59.065Z,100.00
2022-10-28T20:37:05.972Z,100.00
2022-10-28T20:42:10.068Z,100.00
2022-10-28T20:47:17.826Z,100.00
2022-10-28T20:57:24.600Z,100.00
2022-10-28T21:02:28.495Z,100.00
2022-10-28T21:07:37.673Z,100.00
2022-10-28T21:12:42.196Z,100.00
2022-10-28T21:17:44.143Z,100.00
2022-10-28T21:22:45.951Z,100.00
2022-10-28T21:28:06.312Z,100.00
2022-10-28T21:33:11.694Z,100.00
2022-10-28T21:38:17.135Z,100.00
2022-10-28T21:43:18.924Z,100.00
2022-10-28T21:48:23.524Z,100.00
2022-10-28T21:53:26.036Z,100.00
2022-10-28T21:58:30.095Z,100.00
2022-10-28T22:03:35.072Z,100.00
2022-10-28T22:08:38.952Z,100.00
2022-10-28T22:13:45.089Z,100.00
2022-10-28T22:18:49.242Z,100.00
2022-10-28T22:23:51.299Z,100.00
2022-10-28T22:28:53.325Z,100.00
2022-10-28T22:34:00.282Z,100.00
2022-10-28T22:39:05.560Z,100.00
2022-10-28T22:44:07.687Z,100.00
2022-10-28T22:49:11.993Z,100.00
2022-10-28T22:54:20.616Z,100.00
2022-10-28T22:59:22.375Z,100.00
2022-10-28T23:04:26.550Z,100.00
2022-10-28T23:09:30.544Z,100.00
2022-10-28T23:14:39.115Z,100.00
2022-10-28T23:19:43.130Z,100.00
2022-10-28T23:24:47.090Z,100.00
2022-10-28T23:29:48.927Z,100.00
2022-10-28T23:34:53.019Z,100.00
2022-10-28T23:39:59.323Z,100.00
2022-10-28T23:45:03.353Z,100.00
2022-10-28T23:50:14.916Z,100.00
2022-10-28T23:55:16.718Z,100.00
